sensor_id;sensor_type;location;lat;lon;timestamp;P1;durP1;ratioP1;P2;durP2;ratioP2
52668;SDS011;59898;52.786;6.892;2022-08-01T00:01:39;10.52;;;7.15;;
52668;SDS011;59898;52.786;6.892;2022-08-01T00:05:00;7.97;;;6.32;;
52668;SDS011;59898;52.786;6.892;2022-08-01T00:08:21;9.90;;;6.07;;
52668;SDS011;59898;52.786;6.892;2022-08-01T00:11:42;10.02;;;7.80;;
52668;SDS011;59898;52.786;6.892;2022-08-01T00:15:03;9.45;;;6.80;;
52668;SDS011;59898;52.786;6.892;2022-08-01T00:18:25;7.70;;;5.65;;
52668;SDS011;59898;52.786;6.892;2022-08-01T00:21:46;9.00;;;7.05;;
52668;SDS011;59898;52.786;6.892;2022-08-01T00:25:06;7.80;;;6.38;;
52668;SDS011;59898;52.786;6.892;2022-08-01T00:28:27;10.60;;;7.00;;
52668;SDS011;59898;52.786;6.892;2022-08-01T00:31:48;8.25;;;6.65;;
52668;SDS011;59898;52.786;6.892;2022-08-01T00:35:09;8.98;;;6.20;;
52668;SDS011;59898;52.786;6.892;2022-08-01T00:38:30;9.27;;;7.18;;
52668;SDS011;59898;52.786;6.892;2022-08-01T00:41:51;10.85;;;7.72;;
52668;SDS011;59898;52.786;6.892;2022-08-01T00:45:11;10.82;;;7.35;;
52668;SDS011;59898;52.786;6.892;2022-08-01T00:48:32;9.55;;;7.18;;
52668;SDS011;59898;52.786;6.892;2022-08-01T00:51:53;9.07;;;7.20;;
52668;SDS011;59898;52.786;6.892;2022-08-01T00:55:14;8.77;;;7.10;;
52668;SDS011;59898;52.786;6.892;2022-08-01T00:58:37;9.80;;;7.88;;
52668;SDS011;59898;52.786;6.892;2022-08-01T01:01:57;11.55;;;8.45;;
52668;SDS011;59898;52.786;6.892;2022-08-01T01:05:18;10.30;;;7.38;;
52668;SDS011;59898;52.786;6.892;2022-08-01T01:08:41;9.98;;;7.95;;
52668;SDS011;59898;52.786;6.892;2022-08-01T01:12:19;12.63;;;8.25;;
52668;SDS011;59898;52.786;6.892;2022-08-01T01:19:20;10.15;;;7.57;;
52668;SDS011;59898;52.786;6.892;2022-08-01T01:22:53;10.73;;;8.40;;
52668;SDS011;59898;52.786;6.892;2022-08-01T01:26:38;12.95;;;9.35;;
52668;SDS011;59898;52.786;6.892;2022-08-01T01:30:09;14.55;;;8.95;;
52668;SDS011;59898;52.786;6.892;2022-08-01T01:33:32;12.18;;;7.70;;
52668;SDS011;59898;52.786;6.892;2022-08-01T01:36:56;10.80;;;8.15;;
52668;SDS011;59898;52.786;6.892;2022-08-01T01:40:19;9.98;;;7.43;;
52668;SDS011;59898;52.786;6.892;2022-08-01T01:43:41;12.30;;;8.20;;
52668;SDS011;59898;52.786;6.892;2022-08-01T01:47:04;10.57;;;6.80;;
52668;SDS011;59898;52.786;6.892;2022-08-01T01:50:25;12.88;;;8.57;;
52668;SDS011;59898;52.786;6.892;2022-08-01T01:53:46;11.77;;;9.15;;
52668;SDS011;59898;52.786;6.892;2022-08-01T01:57:08;13.23;;;9.63;;
52668;SDS011;59898;52.786;6.892;2022-08-01T02:00:31;11.73;;;9.20;;
52668;SDS011;59898;52.786;6.892;2022-08-01T02:03:53;14.45;;;9.13;;
52668;SDS011;59898;52.786;6.892;2022-08-01T02:07:18;14.80;;;9.88;;
52668;SDS011;59898;52.786;6.892;2022-08-01T02:10:42;15.35;;;9.85;;
52668;SDS011;59898;52.786;6.892;2022-08-01T02:14:25;12.35;;;8.32;;
52668;SDS011;59898;52.786;6.892;2022-08-01T02:17:48;10.48;;;7.93;;
52668;SDS011;59898;52.786;6.892;2022-08-01T02:21:12;10.68;;;8.25;;
52668;SDS011;59898;52.786;6.892;2022-08-01T02:24:37;11.85;;;7.88;;
52668;SDS011;59898;52.786;6.892;2022-08-01T02:28:10;8.27;;;6.43;;
52668;SDS011;59898;52.786;6.892;2022-08-01T02:31:38;8.57;;;5.78;;
52668;SDS011;59898;52.786;6.892;2022-08-01T02:35:04;9.18;;;6.07;;
52668;SDS011;59898;52.786;6.892;2022-08-01T02:38:31;6.30;;;4.78;;
52668;SDS011;59898;52.786;6.892;2022-08-01T02:41:55;8.35;;;6.07;;
52668;SDS011;59898;52.786;6.892;2022-08-01T02:45:20;7.70;;;4.75;;
52668;SDS011;59898;52.786;6.892;2022-08-01T02:48:44;9.10;;;5.68;;
52668;SDS011;59898;52.786;6.892;2022-08-01T02:55:30;9.98;;;6.63;;
52668;SDS011;59898;52.786;6.892;2022-08-01T02:58:54;8.35;;;5.75;;
52668;SDS011;59898;52.786;6.892;2022-08-01T03:02:14;10.07;;;5.30;;
52668;SDS011;59898;52.786;6.892;2022-08-01T03:05:37;8.63;;;5.70;;
52668;SDS011;59898;52.786;6.892;2022-08-01T03:09:02;8.35;;;4.97;;
52668;SDS011;59898;52.786;6.892;2022-08-01T03:12:25;6.45;;;4.53;;
52668;SDS011;59898;52.786;6.892;2022-08-01T03:15:48;6.88;;;4.80;;
52668;SDS011;59898;52.786;6.892;2022-08-01T03:19:10;6.55;;;3.92;;
52668;SDS011;59898;52.786;6.892;2022-08-01T03:22:32;6.35;;;4.85;;
52668;SDS011;59898;52.786;6.892;2022-08-01T03:25:54;8.13;;;3.97;;
52668;SDS011;59898;52.786;6.892;2022-08-01T03:29:18;5.28;;;3.78;;
52668;SDS011;59898;52.786;6.892;2022-08-01T03:32:47;5.50;;;3.65;;
52668;SDS011;59898;52.786;6.892;2022-08-01T03:36:08;6.38;;;3.33;;
52668;SDS011;59898;52.786;6.892;2022-08-01T03:39:34;3.75;;;2.70;;
52668;SDS011;59898;52.786;6.892;2022-08-01T03:43:05;7.18;;;3.03;;
52668;SDS011;59898;52.786;6.892;2022-08-01T03:46:40;5.57;;;2.78;;
52668;SDS011;59898;52.786;6.892;2022-08-01T03:50:05;5.32;;;3.30;;
52668;SDS011;59898;52.786;6.892;2022-08-01T03:53:28;4.70;;;2.75;;
52668;SDS011;59898;52.786;6.892;2022-08-01T03:56:51;5.97;;;3.08;;
52668;SDS011;59898;52.786;6.892;2022-08-01T04:00:12;3.95;;;2.70;;
52668;SDS011;59898;52.786;6.892;2022-08-01T04:03:38;5.95;;;2.83;;
52668;SDS011;59898;52.786;6.892;2022-08-01T04:06:59;5.95;;;2.60;;
52668;SDS011;59898;52.786;6.892;2022-08-01T04:10:24;3.72;;;2.50;;
52668;SDS011;59898;52.786;6.892;2022-08-01T04:13:45;5.97;;;2.60;;
52668;SDS011;59898;52.786;6.892;2022-08-01T04:17:06;4.97;;;2.67;;
52668;SDS011;59898;52.786;6.892;2022-08-01T04:20:27;6.38;;;2.53;;
52668;SDS011;59898;52.786;6.892;2022-08-01T04:23:47;7.93;;;2.42;;
52668;SDS011;59898;52.786;6.892;2022-08-01T04:27:11;4.03;;;2.70;;
52668;SDS011;59898;52.786;6.892;2022-08-01T04:30:35;4.75;;;4.05;;
52668;SDS011;59898;52.786;6.892;2022-08-01T04:33:59;3.60;;;2.60;;
52668;SDS011;59898;52.786;6.892;2022-08-01T04:37:22;6.07;;;3.40;;
52668;SDS011;59898;52.786;6.892;2022-08-01T04:40:45;4.53;;;2.95;;
52668;SDS011;59898;52.786;6.892;2022-08-01T04:44:06;3.72;;;2.90;;
52668;SDS011;59898;52.786;6.892;2022-08-01T04:47:27;7.00;;;3.55;;
52668;SDS011;59898;52.786;6.892;2022-08-01T04:50:50;6.80;;;2.88;;
52668;SDS011;59898;52.786;6.892;2022-08-01T04:54:11;4.72;;;2.70;;
52668;SDS011;59898;52.786;6.892;2022-08-01T04:57:33;8.65;;;2.70;;
52668;SDS011;59898;52.786;6.892;2022-08-01T05:00:56;4.32;;;2.75;;
52668;SDS011;59898;52.786;6.892;2022-08-01T05:04:17;7.20;;;2.53;;
52668;SDS011;59898;52.786;6.892;2022-08-01T05:07:38;7.68;;;2.53;;
52668;SDS011;59898;52.786;6.892;2022-08-01T05:10:59;3.50;;;2.20;;
52668;SDS011;59898;52.786;6.892;2022-08-01T05:14:21;2.67;;;2.00;;
52668;SDS011;59898;52.786;6.892;2022-08-01T05:17:41;4.18;;;2.47;;
52668;SDS011;59898;52.786;6.892;2022-08-01T05:21:02;5.47;;;2.22;;
52668;SDS011;59898;52.786;6.892;2022-08-01T05:24:23;8.73;;;2.80;;
52668;SDS011;59898;52.786;6.892;2022-08-01T05:27:43;5.32;;;2.40;;
52668;SDS011;59898;52.786;6.892;2022-08-01T05:31:04;4.70;;;2.20;;
52668;SDS011;59898;52.786;6.892;2022-08-01T05:34:25;7.18;;;2.55;;
52668;SDS011;59898;52.786;6.892;2022-08-01T05:37:46;4.07;;;2.50;;
52668;SDS011;59898;52.786;6.892;2022-08-01T05:41:06;3.72;;;2.28;;
52668;SDS011;59898;52.786;6.892;2022-08-01T05:44:27;3.55;;;2.13;;
52668;SDS011;59898;52.786;6.892;2022-08-01T05:47:48;7.95;;;2.97;;
52668;SDS011;59898;52.786;6.892;2022-08-01T05:51:09;7.85;;;3.08;;
52668;SDS011;59898;52.786;6.892;2022-08-01T05:54:29;8.38;;;3.20;;
52668;SDS011;59898;52.786;6.892;2022-08-01T05:57:50;6.00;;;2.63;;
52668;SDS011;59898;52.786;6.892;2022-08-01T06:01:10;8.18;;;2.97;;
52668;SDS011;59898;52.786;6.892;2022-08-01T06:04:31;8.70;;;2.72;;
52668;SDS011;59898;52.786;6.892;2022-08-01T06:07:52;8.23;;;3.53;;
52668;SDS011;59898;52.786;6.892;2022-08-01T06:11:13;4.53;;;2.50;;
52668;SDS011;59898;52.786;6.892;2022-08-01T06:14:34;8.05;;;3.72;;
52668;SDS011;59898;52.786;6.892;2022-08-01T06:17:55;7.70;;;3.15;;
52668;SDS011;59898;52.786;6.892;2022-08-01T06:21:15;8.35;;;4.10;;
52668;SDS011;59898;52.786;6.892;2022-08-01T06:24:36;5.50;;;3.10;;
52668;SDS011;59898;52.786;6.892;2022-08-01T06:27:57;7.82;;;2.78;;
52668;SDS011;59898;52.786;6.892;2022-08-01T06:31:17;8.70;;;3.58;;
52668;SDS011;59898;52.786;6.892;2022-08-01T06:34:38;6.05;;;2.53;;
52668;SDS011;59898;52.786;6.892;2022-08-01T06:37:59;9.05;;;3.63;;
52668;SDS011;59898;52.786;6.892;2022-08-01T06:41:19;9.68;;;3.45;;
52668;SDS011;59898;52.786;6.892;2022-08-01T06:44:40;8.82;;;4.07;;
52668;SDS011;59898;52.786;6.892;2022-08-01T06:48:01;10.48;;;3.75;;
52668;SDS011;59898;52.786;6.892;2022-08-01T06:51:22;9.13;;;3.40;;
52668;SDS011;59898;52.786;6.892;2022-08-01T06:54:43;10.23;;;3.80;;
52668;SDS011;59898;52.786;6.892;2022-08-01T06:58:03;12.88;;;3.67;;
52668;SDS011;59898;52.786;6.892;2022-08-01T07:01:24;11.48;;;4.80;;
52668;SDS011;59898;52.786;6.892;2022-08-01T07:04:45;11.90;;;3.50;;
52668;SDS011;59898;52.786;6.892;2022-08-01T07:08:05;12.32;;;3.50;;
52668;SDS011;59898;52.786;6.892;2022-08-01T07:11:26;9.65;;;4.18;;
52668;SDS011;59898;52.786;6.892;2022-08-01T07:14:47;9.35;;;3.65;;
52668;SDS011;59898;52.786;6.892;2022-08-01T07:18:07;9.35;;;3.28;;
52668;SDS011;59898;52.786;6.892;2022-08-01T07:21:28;13.35;;;3.70;;
52668;SDS011;59898;52.786;6.892;2022-08-01T07:24:49;12.52;;;3.17;;
52668;SDS011;59898;52.786;6.892;2022-08-01T07:28:09;7.90;;;4.22;;
52668;SDS011;59898;52.786;6.892;2022-08-01T07:31:30;14.27;;;3.88;;
52668;SDS011;59898;52.786;6.892;2022-08-01T07:34:51;9.95;;;4.20;;
52668;SDS011;59898;52.786;6.892;2022-08-01T07:38:12;11.65;;;3.85;;
52668;SDS011;59898;52.786;6.892;2022-08-01T07:41:32;11.20;;;3.67;;
52668;SDS011;59898;52.786;6.892;2022-08-01T07:44:53;10.13;;;5.32;;
52668;SDS011;59898;52.786;6.892;2022-08-01T07:48:14;10.02;;;3.67;;
52668;SDS011;59898;52.786;6.892;2022-08-01T07:51:35;11.57;;;3.33;;
52668;SDS011;59898;52.786;6.892;2022-08-01T07:54:56;18.55;;;6.20;;
52668;SDS011;59898;52.786;6.892;2022-08-01T07:58:17;16.92;;;3.72;;
52668;SDS011;59898;52.786;6.892;2022-08-01T08:01:39;13.32;;;6.93;;
52668;SDS011;59898;52.786;6.892;2022-08-01T08:05:00;24.83;;;7.63;;
52668;SDS011;59898;52.786;6.892;2022-08-01T08:08:20;15.98;;;4.47;;
52668;SDS011;59898;52.786;6.892;2022-08-01T08:11:42;12.32;;;4.32;;
52668;SDS011;59898;52.786;6.892;2022-08-01T08:15:04;17.45;;;5.60;;
52668;SDS011;59898;52.786;6.892;2022-08-01T08:18:26;17.30;;;5.40;;
52668;SDS011;59898;52.786;6.892;2022-08-01T08:21:47;14.80;;;3.70;;
52668;SDS011;59898;52.786;6.892;2022-08-01T08:25:08;15.15;;;4.50;;
52668;SDS011;59898;52.786;6.892;2022-08-01T08:28:28;11.27;;;3.88;;
52668;SDS011;59898;52.786;6.892;2022-08-01T08:31:49;13.20;;;4.82;;
52668;SDS011;59898;52.786;6.892;2022-08-01T08:35:10;18.17;;;5.28;;
52668;SDS011;59898;52.786;6.892;2022-08-01T08:38:31;11.07;;;3.97;;
52668;SDS011;59898;52.786;6.892;2022-08-01T08:41:52;11.15;;;3.85;;
52668;SDS011;59898;52.786;6.892;2022-08-01T08:45:12;8.40;;;3.70;;
52668;SDS011;59898;52.786;6.892;2022-08-01T08:48:33;20.80;;;4.78;;
52668;SDS011;59898;52.786;6.892;2022-08-01T08:51:57;13.90;;;4.35;;
52668;SDS011;59898;52.786;6.892;2022-08-01T08:55:19;16.27;;;3.50;;
52668;SDS011;59898;52.786;6.892;2022-08-01T08:58:43;18.63;;;6.57;;
52668;SDS011;59898;52.786;6.892;2022-08-01T09:02:04;13.02;;;5.72;;
52668;SDS011;59898;52.786;6.892;2022-08-01T09:05:26;16.08;;;5.63;;
52668;SDS011;59898;52.786;6.892;2022-08-01T09:08:47;12.00;;;4.10;;
52668;SDS011;59898;52.786;6.892;2022-08-01T09:12:08;12.45;;;5.28;;
52668;SDS011;59898;52.786;6.892;2022-08-01T09:15:43;9.88;;;4.25;;
52668;SDS011;59898;52.786;6.892;2022-08-01T09:22:33;12.60;;;5.15;;
52668;SDS011;59898;52.786;6.892;2022-08-01T09:25:54;15.98;;;3.92;;
52668;SDS011;59898;52.786;6.892;2022-08-01T09:29:17;10.90;;;4.32;;
52668;SDS011;59898;52.786;6.892;2022-08-01T09:32:56;18.00;;;4.22;;
52668;SDS011;59898;52.786;6.892;2022-08-01T09:36:21;14.07;;;4.30;;
52668;SDS011;59898;52.786;6.892;2022-08-01T09:39:45;32.47;;;4.65;;
52668;SDS011;59898;52.786;6.892;2022-08-01T09:43:15;23.15;;;4.57;;
52668;SDS011;59898;52.786;6.892;2022-08-01T09:46:45;12.30;;;5.35;;
52668;SDS011;59898;52.786;6.892;2022-08-01T09:50:15;11.68;;;3.95;;
52668;SDS011;59898;52.786;6.892;2022-08-01T09:53:43;9.65;;;3.88;;
52668;SDS011;59898;52.786;6.892;2022-08-01T09:57:13;6.75;;;3.42;;
52668;SDS011;59898;52.786;6.892;2022-08-01T10:00:38;10.10;;;4.22;;
52668;SDS011;59898;52.786;6.892;2022-08-01T10:04:03;9.53;;;3.87;;
52668;SDS011;59898;52.786;6.892;2022-08-01T10:07:27;11.23;;;4.45;;
52668;SDS011;59898;52.786;6.892;2022-08-01T10:11:07;9.65;;;4.20;;
52668;SDS011;59898;52.786;6.892;2022-08-01T10:14:30;11.23;;;3.42;;
52668;SDS011;59898;52.786;6.892;2022-08-01T10:21:20;9.98;;;4.20;;
52668;SDS011;59898;52.786;6.892;2022-08-01T10:24:44;11.15;;;3.85;;
52668;SDS011;59898;52.786;6.892;2022-08-01T10:28:10;9.52;;;4.25;;
52668;SDS011;59898;52.786;6.892;2022-08-01T10:31:36;9.98;;;3.40;;
52668;SDS011;59898;52.786;6.892;2022-08-01T10:34:58;14.55;;;6.13;;
52668;SDS011;59898;52.786;6.892;2022-08-01T10:38:20;11.45;;;3.78;;
52668;SDS011;59898;52.786;6.892;2022-08-01T10:41:40;11.43;;;4.07;;
52668;SDS011;59898;52.786;6.892;2022-08-01T10:45:01;9.23;;;3.33;;
52668;SDS011;59898;52.786;6.892;2022-08-01T10:48:28;11.13;;;3.80;;
52668;SDS011;59898;52.786;6.892;2022-08-01T10:51:59;9.73;;;3.60;;
52668;SDS011;59898;52.786;6.892;2022-08-01T10:55:20;4.90;;;3.10;;
52668;SDS011;59898;52.786;6.892;2022-08-01T10:58:45;7.93;;;3.75;;
52668;SDS011;59898;52.786;6.892;2022-08-01T11:02:07;7.57;;;3.00;;
52668;SDS011;59898;52.786;6.892;2022-08-01T11:05:28;31.80;;;3.42;;
52668;SDS011;59898;52.786;6.892;2022-08-01T11:08:53;15.27;;;3.60;;
52668;SDS011;59898;52.786;6.892;2022-08-01T11:12:15;12.57;;;3.20;;
52668;SDS011;59898;52.786;6.892;2022-08-01T11:15:41;11.32;;;3.13;;
52668;SDS011;59898;52.786;6.892;2022-08-01T11:19:03;9.77;;;3.58;;
52668;SDS011;59898;52.786;6.892;2022-08-01T11:29:14;8.10;;;3.60;;
52668;SDS011;59898;52.786;6.892;2022-08-01T11:32:50;11.38;;;2.80;;
52668;SDS011;59898;52.786;6.892;2022-08-01T11:36:16;6.22;;;2.50;;
52668;SDS011;59898;52.786;6.892;2022-08-01T11:39:37;8.03;;;3.60;;
52668;SDS011;59898;52.786;6.892;2022-08-01T11:53:49;5.55;;;2.97;;
52668;SDS011;59898;52.786;6.892;2022-08-01T11:57:17;11.38;;;3.38;;
52668;SDS011;59898;52.786;6.892;2022-08-01T12:00:39;6.82;;;3.05;;
52668;SDS011;59898;52.786;6.892;2022-08-01T12:04:00;10.15;;;2.50;;
52668;SDS011;59898;52.786;6.892;2022-08-01T12:07:21;6.50;;;3.10;;
52668;SDS011;59898;52.786;6.892;2022-08-01T12:10:49;13.57;;;3.23;;
52668;SDS011;59898;52.786;6.892;2022-08-01T12:14:14;7.88;;;2.55;;
52668;SDS011;59898;52.786;6.892;2022-08-01T12:17:41;4.35;;;2.65;;
52668;SDS011;59898;52.786;6.892;2022-08-01T12:21:03;10.23;;;5.47;;
52668;SDS011;59898;52.786;6.892;2022-08-01T12:24:24;5.72;;;2.42;;
52668;SDS011;59898;52.786;6.892;2022-08-01T12:27:45;5.78;;;2.60;;
52668;SDS011;59898;52.786;6.892;2022-08-01T12:31:07;4.97;;;2.80;;
52668;SDS011;59898;52.786;6.892;2022-08-01T12:34:28;4.63;;;2.45;;
52668;SDS011;59898;52.786;6.892;2022-08-01T12:37:53;6.82;;;2.50;;
52668;SDS011;59898;52.786;6.892;2022-08-01T12:41:15;7.28;;;2.90;;
52668;SDS011;59898;52.786;6.892;2022-08-01T12:44:37;11.27;;;2.80;;
52668;SDS011;59898;52.786;6.892;2022-08-01T12:47:59;5.65;;;2.38;;
52668;SDS011;59898;52.786;6.892;2022-08-01T12:51:20;11.40;;;3.17;;
52668;SDS011;59898;52.786;6.892;2022-08-01T12:58:22;8.65;;;3.03;;
52668;SDS011;59898;52.786;6.892;2022-08-01T13:01:42;5.82;;;3.08;;
52668;SDS011;59898;52.786;6.892;2022-08-01T13:05:03;5.38;;;2.35;;
52668;SDS011;59898;52.786;6.892;2022-08-01T13:08:29;9.85;;;3.38;;
52668;SDS011;59898;52.786;6.892;2022-08-01T13:11:50;6.95;;;2.55;;
52668;SDS011;59898;52.786;6.892;2022-08-01T13:18:48;6.65;;;2.85;;
52668;SDS011;59898;52.786;6.892;2022-08-01T13:22:10;6.80;;;3.58;;
52668;SDS011;59898;52.786;6.892;2022-08-01T13:25:31;6.55;;;3.22;;
52668;SDS011;59898;52.786;6.892;2022-08-01T13:29:04;6.95;;;2.80;;
52668;SDS011;59898;52.786;6.892;2022-08-01T13:32:26;9.40;;;3.38;;
52668;SDS011;59898;52.786;6.892;2022-08-01T13:35:46;11.43;;;4.07;;
52668;SDS011;59898;52.786;6.892;2022-08-01T13:39:10;8.48;;;2.83;;
52668;SDS011;59898;52.786;6.892;2022-08-01T13:42:49;6.30;;;2.40;;
52668;SDS011;59898;52.786;6.892;2022-08-01T13:46:10;7.45;;;2.65;;
52668;SDS011;59898;52.786;6.892;2022-08-01T13:49:31;6.22;;;2.50;;
52668;SDS011;59898;52.786;6.892;2022-08-01T13:52:51;7.50;;;2.67;;
52668;SDS011;59898;52.786;6.892;2022-08-01T13:56:12;6.15;;;2.40;;
52668;SDS011;59898;52.786;6.892;2022-08-01T13:59:33;4.10;;;2.40;;
52668;SDS011;59898;52.786;6.892;2022-08-01T14:02:54;4.93;;;2.88;;
52668;SDS011;59898;52.786;6.892;2022-08-01T14:06:14;6.00;;;2.75;;
52668;SDS011;59898;52.786;6.892;2022-08-01T14:09:37;8.85;;;3.25;;
52668;SDS011;59898;52.786;6.892;2022-08-01T14:12:58;6.15;;;2.85;;
52668;SDS011;59898;52.786;6.892;2022-08-01T14:16:19;7.18;;;2.50;;
52668;SDS011;59898;52.786;6.892;2022-08-01T14:19:39;5.25;;;2.40;;
52668;SDS011;59898;52.786;6.892;2022-08-01T14:23:00;6.30;;;2.38;;
52668;SDS011;59898;52.786;6.892;2022-08-01T14:26:21;8.73;;;2.47;;
52668;SDS011;59898;52.786;6.892;2022-08-01T14:29:42;4.50;;;1.92;;
52668;SDS011;59898;52.786;6.892;2022-08-01T14:33:02;11.07;;;3.20;;
52668;SDS011;59898;52.786;6.892;2022-08-01T14:36:24;4.37;;;2.70;;
52668;SDS011;59898;52.786;6.892;2022-08-01T14:39:45;6.00;;;2.45;;
52668;SDS011;59898;52.786;6.892;2022-08-01T14:43:05;5.03;;;2.67;;
52668;SDS011;59898;52.786;6.892;2022-08-01T14:46:26;6.30;;;2.17;;
52668;SDS011;59898;52.786;6.892;2022-08-01T14:49:47;7.20;;;3.05;;
52668;SDS011;59898;52.786;6.892;2022-08-01T14:53:09;6.57;;;2.85;;
52668;SDS011;59898;52.786;6.892;2022-08-01T14:56:29;5.63;;;2.60;;
52668;SDS011;59898;52.786;6.892;2022-08-01T14:59:50;10.90;;;2.78;;
52668;SDS011;59898;52.786;6.892;2022-08-01T15:03:11;4.85;;;2.30;;
52668;SDS011;59898;52.786;6.892;2022-08-01T15:06:32;5.75;;;2.08;;
52668;SDS011;59898;52.786;6.892;2022-08-01T15:09:53;7.93;;;4.50;;
52668;SDS011;59898;52.786;6.892;2022-08-01T15:13:13;7.70;;;4.45;;
52668;SDS011;59898;52.786;6.892;2022-08-01T15:16:34;9.13;;;3.33;;
52668;SDS011;59898;52.786;6.892;2022-08-01T15:19:55;3.17;;;1.95;;
52668;SDS011;59898;52.786;6.892;2022-08-01T15:23:17;8.82;;;2.38;;
52668;SDS011;59898;52.786;6.892;2022-08-01T15:26:37;6.35;;;2.40;;
52668;SDS011;59898;52.786;6.892;2022-08-01T15:29:58;6.15;;;2.75;;
52668;SDS011;59898;52.786;6.892;2022-08-01T15:33:19;6.63;;;2.50;;
52668;SDS011;59898;52.786;6.892;2022-08-01T15:36:41;7.50;;;2.50;;
52668;SDS011;59898;52.786;6.892;2022-08-01T15:40:05;11.38;;;3.33;;
52668;SDS011;59898;52.786;6.892;2022-08-01T15:43:26;7.72;;;3.05;;
52668;SDS011;59898;52.786;6.892;2022-08-01T15:46:47;5.07;;;2.45;;
52668;SDS011;59898;52.786;6.892;2022-08-01T15:50:09;8.30;;;4.15;;
52668;SDS011;59898;52.786;6.892;2022-08-01T15:53:30;9.60;;;3.72;;
52668;SDS011;59898;52.786;6.892;2022-08-01T15:56:50;6.93;;;2.30;;
52668;SDS011;59898;52.786;6.892;2022-08-01T16:00:11;6.80;;;3.20;;
52668;SDS011;59898;52.786;6.892;2022-08-01T16:03:33;7.30;;;2.72;;
52668;SDS011;59898;52.786;6.892;2022-08-01T16:06:54;7.97;;;3.17;;
52668;SDS011;59898;52.786;6.892;2022-08-01T16:10:15;8.48;;;3.63;;
52668;SDS011;59898;52.786;6.892;2022-08-01T16:13:36;5.55;;;3.72;;
52668;SDS011;59898;52.786;6.892;2022-08-01T16:16:56;10.75;;;7.10;;
52668;SDS011;59898;52.786;6.892;2022-08-01T16:20:17;9.63;;;3.88;;
52668;SDS011;59898;52.786;6.892;2022-08-01T16:23:38;5.68;;;3.38;;
52668;SDS011;59898;52.786;6.892;2022-08-01T16:27:00;4.13;;;2.60;;
52668;SDS011;59898;52.786;6.892;2022-08-01T16:30:21;9.35;;;2.55;;
52668;SDS011;59898;52.786;6.892;2022-08-01T16:33:42;7.90;;;3.88;;
52668;SDS011;59898;52.786;6.892;2022-08-01T16:37:02;7.07;;;4.30;;
52668;SDS011;59898;52.786;6.892;2022-08-01T16:40:23;7.22;;;3.28;;
52668;SDS011;59898;52.786;6.892;2022-08-01T16:43:44;7.97;;;3.10;;
52668;SDS011;59898;52.786;6.892;2022-08-01T16:47:05;6.25;;;2.63;;
52668;SDS011;59898;52.786;6.892;2022-08-01T16:50:26;8.77;;;3.63;;
52668;SDS011;59898;52.786;6.892;2022-08-01T16:53:46;6.50;;;3.00;;
52668;SDS011;59898;52.786;6.892;2022-08-01T16:57:07;5.07;;;2.50;;
52668;SDS011;59898;52.786;6.892;2022-08-01T17:00:28;5.68;;;2.45;;
52668;SDS011;59898;52.786;6.892;2022-08-01T17:03:49;11.65;;;3.10;;
52668;SDS011;59898;52.786;6.892;2022-08-01T17:07:10;8.38;;;4.05;;
52668;SDS011;59898;52.786;6.892;2022-08-01T17:10:31;6.10;;;2.65;;
52668;SDS011;59898;52.786;6.892;2022-08-01T17:13:51;5.93;;;3.20;;
52668;SDS011;59898;52.786;6.892;2022-08-01T17:17:12;6.32;;;3.08;;
52668;SDS011;59898;52.786;6.892;2022-08-01T17:20:33;11.48;;;3.97;;
52668;SDS011;59898;52.786;6.892;2022-08-01T17:23:53;9.65;;;4.10;;
52668;SDS011;59898;52.786;6.892;2022-08-01T17:27:14;11.57;;;6.22;;
52668;SDS011;59898;52.786;6.892;2022-08-01T17:30:35;8.18;;;3.50;;
52668;SDS011;59898;52.786;6.892;2022-08-01T17:33:59;6.57;;;2.78;;
52668;SDS011;59898;52.786;6.892;2022-08-01T17:37:20;6.07;;;3.00;;
52668;SDS011;59898;52.786;6.892;2022-08-01T17:40:40;8.38;;;3.28;;
52668;SDS011;59898;52.786;6.892;2022-08-01T17:44:01;9.05;;;2.42;;
52668;SDS011;59898;52.786;6.892;2022-08-01T17:47:22;6.70;;;2.25;;
52668;SDS011;59898;52.786;6.892;2022-08-01T17:50:44;7.68;;;3.75;;
52668;SDS011;59898;52.786;6.892;2022-08-01T17:54:05;8.77;;;3.90;;
52668;SDS011;59898;52.786;6.892;2022-08-01T17:57:26;5.45;;;2.88;;
52668;SDS011;59898;52.786;6.892;2022-08-01T18:00:47;5.45;;;2.65;;
52668;SDS011;59898;52.786;6.892;2022-08-01T18:04:08;8.48;;;3.45;;
52668;SDS011;59898;52.786;6.892;2022-08-01T18:07:30;9.20;;;2.90;;
52668;SDS011;59898;52.786;6.892;2022-08-01T18:10:50;6.47;;;3.38;;
52668;SDS011;59898;52.786;6.892;2022-08-01T18:14:12;6.53;;;3.20;;
52668;SDS011;59898;52.786;6.892;2022-08-01T18:17:33;9.88;;;3.03;;
52668;SDS011;59898;52.786;6.892;2022-08-01T18:20:54;9.20;;;5.18;;
52668;SDS011;59898;52.786;6.892;2022-08-01T18:24:15;6.13;;;2.60;;
52668;SDS011;59898;52.786;6.892;2022-08-01T18:27:36;8.05;;;2.70;;
52668;SDS011;59898;52.786;6.892;2022-08-01T18:30:57;15.93;;;3.80;;
52668;SDS011;59898;52.786;6.892;2022-08-01T18:34:18;5.07;;;2.70;;
52668;SDS011;59898;52.786;6.892;2022-08-01T18:37:38;9.25;;;3.20;;
52668;SDS011;59898;52.786;6.892;2022-08-01T18:40:59;8.13;;;2.95;;
52668;SDS011;59898;52.786;6.892;2022-08-01T18:44:20;8.07;;;3.53;;
52668;SDS011;59898;52.786;6.892;2022-08-01T18:47:43;11.23;;;3.63;;
52668;SDS011;59898;52.786;6.892;2022-08-01T18:51:04;8.70;;;3.25;;
52668;SDS011;59898;52.786;6.892;2022-08-01T18:54:26;12.02;;;3.25;;
52668;SDS011;59898;52.786;6.892;2022-08-01T18:57:47;12.57;;;3.30;;
52668;SDS011;59898;52.786;6.892;2022-08-01T19:01:07;8.23;;;3.40;;
52668;SDS011;59898;52.786;6.892;2022-08-01T19:04:28;5.95;;;3.22;;
52668;SDS011;59898;52.786;6.892;2022-08-01T19:07:49;6.60;;;3.72;;
52668;SDS011;59898;52.786;6.892;2022-08-01T19:11:10;6.95;;;3.63;;
52668;SDS011;59898;52.786;6.892;2022-08-01T19:14:31;8.40;;;3.70;;
52668;SDS011;59898;52.786;6.892;2022-08-01T19:17:51;7.95;;;3.10;;
52668;SDS011;59898;52.786;6.892;2022-08-01T19:21:12;8.75;;;3.47;;
52668;SDS011;59898;52.786;6.892;2022-08-01T19:24:33;8.95;;;3.03;;
52668;SDS011;59898;52.786;6.892;2022-08-01T19:27:53;6.03;;;3.15;;
52668;SDS011;59898;52.786;6.892;2022-08-01T19:31:18;10.52;;;3.65;;
52668;SDS011;59898;52.786;6.892;2022-08-01T19:34:47;6.35;;;3.25;;
52668;SDS011;59898;52.786;6.892;2022-08-01T19:38:13;9.52;;;3.45;;
52668;SDS011;59898;52.786;6.892;2022-08-01T19:41:34;8.27;;;3.95;;
52668;SDS011;59898;52.786;6.892;2022-08-01T19:44:57;11.02;;;3.55;;
52668;SDS011;59898;52.786;6.892;2022-08-01T19:48:18;10.18;;;4.32;;
52668;SDS011;59898;52.786;6.892;2022-08-01T19:51:41;16.07;;;7.23;;
52668;SDS011;59898;52.786;6.892;2022-08-01T19:55:24;12.90;;;7.07;;
52668;SDS011;59898;52.786;6.892;2022-08-01T19:58:49;14.18;;;3.78;;
52668;SDS011;59898;52.786;6.892;2022-08-01T20:02:13;5.93;;;3.65;;
52668;SDS011;59898;52.786;6.892;2022-08-01T20:05:39;9.63;;;3.88;;
52668;SDS011;59898;52.786;6.892;2022-08-01T20:09:00;7.78;;;3.53;;
52668;SDS011;59898;52.786;6.892;2022-08-01T20:12:21;6.65;;;5.18;;
52668;SDS011;59898;52.786;6.892;2022-08-01T20:15:42;8.95;;;3.17;;
52668;SDS011;59898;52.786;6.892;2022-08-01T20:19:04;9.23;;;3.58;;
52668;SDS011;59898;52.786;6.892;2022-08-01T20:22:24;8.75;;;4.35;;
52668;SDS011;59898;52.786;6.892;2022-08-01T20:25:49;7.75;;;4.00;;
52668;SDS011;59898;52.786;6.892;2022-08-01T20:29:13;7.57;;;3.72;;
52668;SDS011;59898;52.786;6.892;2022-08-01T20:32:36;11.60;;;4.07;;
52668;SDS011;59898;52.786;6.892;2022-08-01T20:35:59;9.30;;;3.80;;
52668;SDS011;59898;52.786;6.892;2022-08-01T20:39:23;7.70;;;3.60;;
52668;SDS011;59898;52.786;6.892;2022-08-01T20:42:44;10.98;;;4.18;;
52668;SDS011;59898;52.786;6.892;2022-08-01T20:46:06;11.77;;;4.30;;
52668;SDS011;59898;52.786;6.892;2022-08-01T20:49:27;10.48;;;4.47;;
52668;SDS011;59898;52.786;6.892;2022-08-01T20:52:50;15.45;;;5.65;;